Time;durP1;ratioP1;P1;durP2;ratioP2;P2;SDS_P1;SDS_P2;PMS_P1;PMS_P2;Temp;Humidity;BMP_temperature;BMP_pressure;BME280_temperature;BME280_humidity;BME280_pressure;Samples;Min_cycle;Max_cycle;Signal;HPM_P1;HPM_P2
2023/06/11 00:01:14;;;;;;;10.85;8.68;;;16.90;96.00;;;;;;5087868;28;20024;-69
2023/06/11 00:03:46;;;;;;;11.43;8.52;;;16.90;96.10;;;;;;5077432;28;20526;-69
2023/06/11 00:06:17;;;;;;;12.15;8.60;;;16.90;96.10;;;;;;5085852;28;20020;-69
2023/06/11 00:08:44;;;;;;;10.98;9.05;;;16.90;96.00;;;;;;5083260;28;20122;-68
2023/06/11 00:11:10;;;;;;;10.43;8.32;;;16.80;96.00;;;;;;5089099;28;20024;-68
2023/06/11 00:13:36;;;;;;;10.68;8.77;;;16.80;96.00;;;;;;5076599;28;20096;-67
2023/06/11 00:16:01;;;;;;;12.60;9.57;;;16.70;96.00;;;;;;5066734;28;20012;-68
2023/06/11 00:18:30;;;;;;;12.90;10.25;;;16.70;96.00;;;;;;5077858;28;20055;-67
2023/06/11 00:20:58;;;;;;;12.23;8.68;;;16.80;96.10;;;;;;5089964;28;20016;-69
2023/06/11 00:23:24;;;;;;;11.27;9.40;;;16.90;96.10;;;;;;5088574;28;20016;-69
2023/06/11 00:25:52;;;;;;;10.95;8.68;;;16.80;96.10;;;;;;5097394;28;20027;-68
2023/06/11 00:28:26;;;;;;;10.70;8.95;;;16.80;96.10;;;;;;5079687;28;20024;-69
2023/06/11 00:30:52;;;;;;;11.00;8.82;;;16.70;96.00;;;;;;5084982;28;20358;-67
2023/06/11 00:33:17;;;;;;;12.20;9.27;;;16.70;95.90;;;;;;5085955;28;20028;-69
2023/06/11 00:35:43;;;;;;;10.32;9.23;;;16.70;96.10;;;;;;5092983;28;20032;-69
2023/06/11 00:38:12;;;;;;;14.27;8.80;;;16.70;96.10;;;;;;5084678;28;20120;-69
2023/06/11 00:40:37;;;;;;;11.15;9.48;;;16.70;96.10;;;;;;5084833;28;20135;-68
2023/06/11 00:43:04;;;;;;;11.73;9.70;;;16.70;96.10;;;;;;5096890;28;20095;-68
2023/06/11 00:45:35;;;;;;;11.38;9.75;;;16.70;96.00;;;;;;5096990;28;20049;-68
2023/06/11 00:48:01;;;;;;;11.07;9.13;;;16.70;96.10;;;;;;5090424;28;20109;-69
2023/06/11 00:50:28;;;;;;;12.48;9.98;;;16.60;95.90;;;;;;5093079;28;20035;-69
2023/06/11 00:52:54;;;;;;;12.00;9.98;;;16.50;95.90;;;;;;5088675;28;20028;-68
2023/06/11 00:55:21;;;;;;;14.80;9.77;;;16.50;95.80;;;;;;5095552;28;20325;-69
2023/06/11 00:57:47;;;;;;;14.13;10.50;;;16.50;95.80;;;;;;5092493;28;20081;-69
2023/06/11 01:00:13;;;;;;;11.23;10.02;;;16.50;95.80;;;;;;5088514;28;20029;-68
2023/06/11 01:02:51;;;;;;;13.07;10.20;;;16.50;95.80;;;;;;5089821;28;20028;-68
2023/06/11 01:05:18;;;;;;;12.35;10.65;;;16.50;95.80;;;;;;5089863;28;20046;-68
2023/06/11 01:07:51;;;;;;;13.25;10.85;;;16.50;95.90;;;;;;5067726;28;20140;-69
2023/06/11 01:10:20;;;;;;;12.73;10.83;;;16.40;95.80;;;;;;5076875;28;20017;-68
2023/06/11 01:12:46;;;;;;;12.15;10.05;;;16.40;95.90;;;;;;5076306;28;20037;-68
2023/06/11 01:15:14;;;;;;;13.30;9.93;;;16.30;95.80;;;;;;5093914;28;20028;-68
2023/06/11 01:18:00;;;;;;;11.52;9.82;;;16.20;95.80;;;;;;5086798;28;20107;-69
2023/06/11 01:20:35;;;;;;;12.05;9.57;;;16.20;95.80;;;;;;5075919;28;20025;-68
2023/06/11 01:23:25;;;;;;;12.73;9.15;;;16.20;95.90;;;;;;5074888;28;20021;-69
2023/06/11 01:26:09;;;;;;;10.48;8.88;;;16.10;95.80;;;;;;5076465;28;20138;-68
2023/06/11 01:28:37;;;;;;;12.18;9.70;;;16.20;95.80;;;;;;5075918;28;20085;-69
2023/06/11 01:31:13;;;;;;;13.38;10.02;;;16.20;96.00;;;;;;5076007;28;20036;-68
2023/06/11 01:33:39;;;;;;;11.48;9.65;;;16.10;95.80;;;;;;5058190;28;20137;-69
2023/06/11 01:36:05;;;;;;;11.65;9.27;;;16.20;95.90;;;;;;5075666;28;20480;-68
2023/06/11 01:38:41;;;;;;;11.77;9.68;;;16.10;95.80;;;;;;5056673;28;20028;-68
2023/06/11 01:41:11;;;;;;;12.45;9.68;;;16.20;95.90;;;;;;5075888;28;20021;-69
2023/06/11 01:43:37;;;;;;;11.73;9.80;;;16.10;95.90;;;;;;5076511;28;20040;-69
2023/06/11 01:46:05;;;;;;;13.15;9.85;;;16.20;96.00;;;;;;5075614;28;20027;-68
2023/06/11 01:48:31;;;;;;;13.50;9.55;;;16.10;96.00;;;;;;5090802;28;20107;-68
2023/06/11 01:50:57;;;;;;;11.38;9.18;;;16.10;95.90;;;;;;5095798;28;20081;-68
2023/06/11 01:53:23;;;;;;;10.45;8.70;;;16.00;96.00;;;;;;5094374;28;20028;-68
2023/06/11 01:55:49;;;;;;;12.40;9.52;;;16.10;96.00;;;;;;5094138;28;20056;-68
2023/06/11 01:58:16;;;;;;;10.75;9.07;;;16.00;96.00;;;;;;5077101;28;20029;-69
2023/06/11 02:00:42;;;;;;;10.35;8.35;;;16.00;96.20;;;;;;5077826;28;20107;-68
2023/06/11 02:03:08;;;;;;;12.57;8.60;;;16.00;96.20;;;;;;5083683;28;20116;-68
2023/06/11 02:05:34;;;;;;;13.38;9.82;;;16.00;96.20;;;;;;5085132;28;20436;-68
2023/06/11 02:08:00;;;;;;;11.18;9.60;;;16.00;96.20;;;;;;5092346;28;20036;-68
2023/06/11 02:10:25;;;;;;;12.07;10.38;;;16.00;95.70;;;;;;5083176;28;20035;-68
2023/06/11 02:12:51;;;;;;;13.35;10.55;;;16.00;95.70;;;;;;5086139;28;20416;-69
2023/06/11 02:15:19;;;;;;;12.85;9.82;;;16.00;95.40;;;;;;5090927;28;20094;-68
2023/06/11 02:17:44;;;;;;;12.52;10.55;;;16.00;95.50;;;;;;5090400;28;20321;-69
2023/06/11 02:20:12;;;;;;;13.70;10.70;;;16.00;95.40;;;;;;5087928;28;20075;-68
2023/06/11 02:22:37;;;;;;;13.85;11.43;;;15.90;95.00;;;;;;5078481;28;20025;-68
2023/06/11 02:25:03;;;;;;;13.45;11.15;;;15.90;94.80;;;;;;5082792;28;20440;-69
2023/06/11 02:27:29;;;;;;;12.07;10.55;;;15.80;94.70;;;;;;5089358;28;20039;-68
2023/06/11 02:29:56;;;;;;;12.50;10.10;;;15.80;94.50;;;;;;5093581;28;20020;-68
2023/06/11 02:32:21;;;;;;;12.27;10.63;;;15.70;94.60;;;;;;5095016;28;20024;-68
2023/06/11 02:34:47;;;;;;;12.32;10.82;;;15.70;94.30;;;;;;5090751;28;20035;-68
2023/06/11 02:37:13;;;;;;;11.98;10.65;;;15.60;93.70;;;;;;5080465;28;20131;-68
2023/06/11 02:39:38;;;;;;;15.35;10.88;;;15.40;93.30;;;;;;5084325;28;20050;-69
2023/06/11 02:42:05;;;;;;;12.73;11.02;;;15.40;92.50;;;;;;5085435;28;20068;-69
2023/06/11 02:44:31;;;;;;;12.35;10.38;;;15.40;92.50;;;;;;5083401;28;20353;-69
2023/06/11 02:46:56;;;;;;;13.18;11.30;;;15.40;92.60;;;;;;5093374;28;20105;-68
2023/06/11 02:49:22;;;;;;;14.70;11.02;;;15.30;92.30;;;;;;5084881;28;20340;-68
2023/06/11 02:51:47;;;;;;;14.32;11.65;;;15.30;92.10;;;;;;5088557;28;20106;-69
2023/06/11 02:54:13;;;;;;;14.25;11.68;;;15.30;91.30;;;;;;5078470;28;20028;-69
2023/06/11 02:56:41;;;;;;;14.07;12.20;;;15.20;91.40;;;;;;5082151;28;20100;-69
2023/06/11 02:59:10;;;;;;;13.75;11.77;;;15.20;91.40;;;;;;5061657;28;20024;-69
2023/06/11 03:01:35;;;;;;;16.23;13.25;;;15.20;91.40;;;;;;5084485;28;20086;-69
2023/06/11 03:04:01;;;;;;;13.27;11.80;;;15.30;90.90;;;;;;5094641;28;20024;-68
2023/06/11 03:06:26;;;;;;;16.45;12.70;;;15.30;91.10;;;;;;5088520;28;20516;-68
2023/06/11 03:08:53;;;;;;;15.18;12.80;;;15.20;90.70;;;;;;5091437;28;20025;-68
2023/06/11 03:11:19;;;;;;;15.95;14.05;;;15.20;90.40;;;;;;5091965;28;20077;-68
2023/06/11 03:13:44;;;;;;;15.32;12.82;;;15.30;90.90;;;;;;5096635;28;20020;-68
2023/06/11 03:16:10;;;;;;;16.23;13.35;;;15.30;90.90;;;;;;5083355;28;20060;-68
2023/06/11 03:18:36;;;;;;;14.15;12.63;;;15.30;90.70;;;;;;5092715;28;20170;-68
2023/06/11 03:21:02;;;;;;;14.35;12.00;;;15.30;91.00;;;;;;5085768;28;20440;-68
2023/06/11 03:23:27;;;;;;;15.43;13.02;;;15.30;91.10;;;;;;5092260;28;20047;-68
2023/06/11 03:25:53;;;;;;;15.43;12.70;;;15.20;90.90;;;;;;5095650;28;20081;-69
2023/06/11 03:28:18;;;;;;;15.27;13.27;;;15.10;91.30;;;;;;5097736;28;20039;-68
2023/06/11 03:30:44;;;;;;;17.02;13.25;;;15.00;90.70;;;;;;5095785;28;20473;-68
2023/06/11 03:33:10;;;;;;;15.82;12.77;;;14.80;90.70;;;;;;5097519;28;20055;-69
2023/06/11 03:35:35;;;;;;;16.85;14.15;;;14.70;90.20;;;;;;5094042;28;20107;-68
2023/06/11 03:38:04;;;;;;;15.25;13.55;;;14.60;88.60;;;;;;5082739;28;20455;-68
2023/06/11 03:40:29;;;;;;;16.67;12.43;;;14.60;88.30;;;;;;5098578;28;20024;-69
2023/06/11 03:42:55;;;;;;;16.95;13.65;;;14.50;87.60;;;;;;5084894;28;20050;-68
2023/06/11 03:45:20;;;;;;;16.23;14.00;;;14.40;87.50;;;;;;5078745;28;20388;-68
2023/06/11 03:47:46;;;;;;;15.77;13.80;;;14.40;86.80;;;;;;5095471;28;20036;-67
2023/06/11 03:50:12;;;;;;;17.15;13.23;;;14.30;86.40;;;;;;5097742;28;20067;-67
2023/06/11 03:52:37;;;;;;;15.27;13.10;;;14.30;86.00;;;;;;5095464;28;20111;-67
2023/06/11 03:55:04;;;;;;;18.33;14.10;;;14.20;85.50;;;;;;5097215;28;20312;-66
2023/06/11 03:57:30;;;;;;;15.98;14.25;;;14.20;85.30;;;;;;5095241;28;20042;-67
2023/06/11 03:59:55;;;;;;;15.88;13.68;;;14.20;84.60;;;;;;5095360;28;20020;-68
2023/06/11 04:02:21;;;;;;;16.10;13.68;;;14.20;84.50;;;;;;5097175;28;20085;-68
2023/06/11 04:04:47;;;;;;;17.67;14.18;;;14.20;84.20;;;;;;5096482;28;20028;-68
2023/06/11 04:07:12;;;;;;;17.20;14.35;;;14.20;84.60;;;;;;5093906;28;20075;-68
2023/06/11 04:09:38;;;;;;;16.13;14.05;;;14.20;84.70;;;;;;5097325;28;20104;-69
2023/06/11 04:12:05;;;;;;;18.48;15.45;;;14.10;84.40;;;;;;5096473;28;20047;-68
2023/06/11 04:14:31;;;;;;;19.13;15.43;;;14.20;83.70;;;;;;5086011;28;20020;-68
2023/06/11 04:16:56;;;;;;;17.17;14.70;;;14.40;82.10;;;;;;5083958;28;20103;-68
2023/06/11 04:19:22;;;;;;;17.75;14.70;;;14.50;84.00;;;;;;5093775;28;20020;-68
2023/06/11 04:21:47;;;;;;;19.13;15.07;;;14.60;83.20;;;;;;5092988;28;20024;-68
2023/06/11 04:24:13;;;;;;;18.17;14.82;;;14.80;83.50;;;;;;5071236;28;20413;-69
2023/06/11 04:26:40;;;;;;;16.83;15.00;;;14.90;84.80;;;;;;5095204;28;20027;-68
2023/06/11 04:29:08;;;;;;;20.55;15.32;;;15.00;85.90;;;;;;5088745;28;20021;-68
2023/06/11 04:31:33;;;;;;;14.93;12.95;;;15.20;86.80;;;;;;5091384;28;21693;-68
2023/06/11 04:34:06;;;;;;;16.92;13.50;;;15.20;87.30;;;;;;5094833;28;20036;-68
2023/06/11 04:36:32;;;;;;;15.60;13.38;;;15.30;88.30;;;;;;5085295;28;20040;-68
2023/06/11 04:39:01;;;;;;;16.33;13.23;;;15.40;88.80;;;;;;5093839;28;20027;-68
2023/06/11 04:41:29;;;;;;;14.75;13.07;;;15.40;89.60;;;;;;5096497;28;20514;-68
2023/06/11 04:43:55;;;;;;;18.98;14.02;;;15.50;90.10;;;;;;5097109;28;20409;-68
2023/06/11 04:46:21;;;;;;;15.20;13.10;;;15.50;90.50;;;;;;5095584;28;20034;-68
2023/06/11 04:48:50;;;;;;;16.42;13.80;;;15.60;90.70;;;;;;5067781;28;20024;-68
2023/06/11 04:51:16;;;;;;;15.45;12.80;;;15.60;91.00;;;;;;5081230;28;20055;-68
2023/06/11 04:53:43;;;;;;;16.20;12.98;;;15.60;91.60;;;;;;5088984;28;20111;-68
2023/06/11 04:56:08;;;;;;;13.98;12.25;;;15.70;91.80;;;;;;5095106;28;20020;-68
2023/06/11 04:58:34;;;;;;;13.15;11.35;;;15.70;92.10;;;;;;5096827;28;20355;-68
2023/06/11 05:00:59;;;;;;;14.00;12.00;;;15.70;92.30;;;;;;5096609;28;20028;-68
2023/06/11 05:03:32;;;;;;;15.02;11.80;;;15.80;92.70;;;;;;5079103;28;20028;-68
2023/06/11 05:05:58;;;;;;;15.55;12.52;;;15.90;93.10;;;;;;5093000;28;20104;-68
2023/06/11 05:08:25;;;;;;;13.43;11.15;;;15.90;93.60;;;;;;5075759;28;20485;-68
2023/06/11 05:10:51;;;;;;;14.82;11.60;;;16.00;93.70;;;;;;5076342;28;20368;-68
2023/06/11 05:13:26;;;;;;;13.85;11.57;;;16.10;94.30;;;;;;5076292;28;20062;-69
2023/06/11 05:15:53;;;;;;;13.65;11.65;;;16.10;94.10;;;;;;5078222;28;20024;-69
2023/06/11 05:18:19;;;;;;;12.43;10.70;;;16.20;94.40;;;;;;5096723;28;20028;-68
2023/06/11 05:20:45;;;;;;;13.63;10.52;;;16.20;94.60;;;;;;5096503;28;20405;-68
2023/06/11 05:23:11;;;;;;;13.75;10.25;;;16.30;94.80;;;;;;5095281;28;20063;-68
2023/06/11 05:25:46;;;;;;;11.85;10.52;;;16.30;94.90;;;;;;5088936;28;20602;-68
2023/06/11 05:28:12;;;;;;;13.75;10.70;;;16.30;95.00;;;;;;5094793;28;20427;-69
2023/06/11 05:30:39;;;;;;;14.13;11.00;;;16.40;95.40;;;;;;5079327;28;20032;-68
2023/06/11 05:33:05;;;;;;;12.65;10.07;;;16.50;95.90;;;;;;5077187;28;20413;-69
2023/06/11 05:35:31;;;;;;;13.38;10.73;;;16.70;96.20;;;;;;5093697;28;20108;-69
2023/06/11 05:37:57;;;;;;;14.95;9.98;;;16.80;96.90;;;;;;5091455;28;20123;-68
2023/06/11 05:40:23;;;;;;;12.98;9.70;;;16.90;97.10;;;;;;5076890;28;20210;-68
2023/06/11 05:42:49;;;;;;;11.40;9.63;;;17.10;97.00;;;;;;5081353;28;20413;-68
2023/06/11 05:45:15;;;;;;;11.05;9.23;;;17.20;97.10;;;;;;5094145;28;20060;-68
2023/06/11 05:47:41;;;;;;;11.57;9.10;;;17.20;97.10;;;;;;5092536;28;20325;-69
2023/06/11 05:50:06;;;;;;;11.55;9.45;;;17.30;97.10;;;;;;5094442;28;20027;-69
2023/06/11 05:52:32;;;;;;;12.00;8.80;;;17.40;96.90;;;;;;5076047;28;20066;-68
2023/06/11 05:54:58;;;;;;;11.10;9.10;;;17.60;97.00;;;;;;5090269;28;20333;-68
2023/06/11 05:57:27;;;;;;;10.65;8.57;;;17.60;97.00;;;;;;5093835;28;20081;-68
2023/06/11 05:59:53;;;;;;;10.55;8.13;;;17.70;97.00;;;;;;5095104;28;20024;-69
2023/06/11 06:02:18;;;;;;;11.52;8.40;;;17.90;96.70;;;;;;5071660;28;20031;-68
2023/06/11 06:04:48;;;;;;;10.00;8.27;;;18.00;96.60;;;;;;5087628;28;20028;-68
2023/06/11 06:07:15;;;;;;;12.43;8.55;;;18.10;96.40;;;;;;5094277;28;20032;-68
2023/06/11 06:09:40;;;;;;;10.55;8.30;;;18.20;96.70;;;;;;5076029;28;20032;-68
2023/06/11 06:12:07;;;;;;;10.35;8.60;;;18.30;96.20;;;;;;5097899;28;20032;-68
2023/06/11 06:14:32;;;;;;;11.52;9.65;;;18.50;95.90;;;;;;5099240;28;20028;-69
2023/06/11 06:16:58;;;;;;;10.45;9.13;;;18.40;95.60;;;;;;5099821;28;20336;-68
2023/06/11 06:19:24;;;;;;;12.30;8.75;;;18.50;95.70;;;;;;5096380;28;20032;-69
2023/06/11 06:21:50;;;;;;;14.45;8.52;;;18.50;95.80;;;;;;5099110;28;20042;-68
2023/06/11 06:24:15;;;;;;;13.35;8.73;;;18.70;95.60;;;;;;5098600;28;20024;-69
2023/06/11 06:26:41;;;;;;;10.10;8.63;;;18.80;95.20;;;;;;5098902;28;20058;-69
2023/06/11 06:29:08;;;;;;;12.07;9.35;;;18.90;95.00;;;;;;5088762;28;20431;-68
2023/06/11 06:31:36;;;;;;;11.13;8.38;;;18.80;94.70;;;;;;5087056;28;20020;-68
2023/06/11 06:34:02;;;;;;;10.93;8.45;;;18.90;94.60;;;;;;5085046;28;20397;-69
2023/06/11 06:36:28;;;;;;;9.23;8.23;;;19.10;94.40;;;;;;5073748;28;20051;-69
2023/06/11 06:38:53;;;;;;;11.15;7.80;;;19.10;93.80;;;;;;5086165;28;20465;-69
2023/06/11 06:41:19;;;;;;;11.82;8.38;;;19.10;93.70;;;;;;5097773;28;20076;-67
2023/06/11 06:43:44;;;;;;;10.93;8.48;;;19.10;93.60;;;;;;5098276;28;20609;-67
2023/06/11 06:46:10;;;;;;;10.95;8.18;;;19.10;93.50;;;;;;5099250;28;20332;-67
2023/06/11 06:48:36;;;;;;;9.75;8.02;;;19.10;93.40;;;;;;5097756;28;20433;-67
2023/06/11 06:51:04;;;;;;;11.48;7.90;;;19.10;93.40;;;;;;5095963;28;20119;-66
2023/06/11 06:53:33;;;;;;;10.05;8.40;;;19.20;93.10;;;;;;5077567;28;20039;-69
2023/06/11 06:56:00;;;;;;;11.70;8.30;;;19.30;92.80;;;;;;5086337;28;20073;-68
2023/06/11 06:58:34;;;;;;;11.70;8.82;;;19.30;93.10;;;;;;5086498;28;20359;-68
2023/06/11 07:01:00;;;;;;;10.63;8.20;;;19.40;92.90;;;;;;5093008;28;20028;-68
2023/06/11 07:03:25;;;;;;;12.20;7.68;;;19.50;92.80;;;;;;5098019;28;20028;-69
2023/06/11 07:05:51;;;;;;;9.73;7.90;;;19.70;93.00;;;;;;5094833;28;20025;-67
2023/06/11 07:08:17;;;;;;;11.75;7.38;;;20.00;91.80;;;;;;5083018;28;20032;-68
2023/06/11 07:10:53;;;;;;;10.98;7.45;;;20.10;91.30;;;;;;5098966;28;20032;-69
2023/06/11 07:13:18;;;;;;;8.65;7.40;;;20.20;91.50;;;;;;5098728;28;20443;-68
2023/06/11 07:15:44;;;;;;;10.40;7.55;;;20.50;90.00;;;;;;5091950;28;20040;-68
2023/06/11 07:18:10;;;;;;;11.30;7.22;;;20.60;89.10;;;;;;5079482;28;20024;-69
2023/06/11 07:20:35;;;;;;;8.68;7.10;;;20.60;88.90;;;;;;5094082;28;20028;-68
2023/06/11 07:23:01;;;;;;;11.02;7.05;;;20.80;88.50;;;;;;5096508;28;20028;-68
2023/06/11 07:25:30;;;;;;;9.25;6.47;;;21.20;87.90;;;;;;5098391;28;20321;-68
2023/06/11 07:27:58;;;;;;;9.77;5.90;;;21.80;86.30;;;;;;5095812;28;20028;-69
2023/06/11 07:30:24;;;;;;;10.82;6.10;;;22.60;84.50;;;;;;5084042;28;20032;-68
2023/06/11 07:32:50;;;;;;;7.20;5.85;;;23.60;81.10;;;;;;5091906;28;20084;-68
2023/06/11 07:35:16;;;;;;;8.52;5.40;;;24.20;79.20;;;;;;5079764;28;20020;-68
2023/06/11 07:37:42;;;;;;;8.13;5.40;;;24.50;77.30;;;;;;5093763;28;21741;-67
2023/06/11 07:40:08;;;;;;;7.50;5.20;;;24.50;75.90;;;;;;5088818;28;20077;-68
2023/06/11 07:42:36;;;;;;;9.23;6.10;;;24.50;76.10;;;;;;5097968;28;20028;-67
2023/06/11 07:45:02;;;;;;;9.77;6.13;;;24.20;76.70;;;;;;5084048;28;20029;-67
2023/06/11 07:47:29;;;;;;;10.02;6.13;;;24.30;76.70;;;;;;5094613;28;20039;-67
2023/06/11 07:49:58;;;;;;;9.52;6.10;;;24.00;77.30;;;;;;5092052;28;20025;-67
2023/06/11 07:52:23;;;;;;;8.93;5.82;;;24.30;76.60;;;;;;5083195;28;20028;-68
2023/06/11 07:54:49;;;;;;;7.18;5.03;;;24.30;76.90;;;;;;5097864;28;20110;-69
2023/06/11 07:57:15;;;;;;;8.93;5.30;;;24.60;75.50;;;;;;5090795;28;20480;-68
2023/06/11 07:59:43;;;;;;;7.05;5.10;;;25.00;74.20;;;;;;5083584;28;20017;-68
2023/06/11 08:02:09;;;;;;;6.28;4.93;;;25.30;74.70;;;;;;5091699;28;20077;-68
2023/06/11 08:04:35;;;;;;;7.30;5.30;;;25.90;72.40;;;;;;5092428;28;20028;-68
2023/06/11 08:07:01;;;;;;;9.65;5.18;;;25.50;74.00;;;;;;5090607;28;20047;-68
2023/06/11 08:09:27;;;;;;;7.60;4.72;;;26.00;72.00;;;;;;5089285;28;20054;-69
2023/06/11 08:11:52;;;;;;;6.75;4.97;;;26.20;69.80;;;;;;5088601;28;20036;-68
2023/06/11 08:14:20;;;;;;;7.88;4.85;;;26.00;69.70;;;;;;5079351;28;20141;-67
2023/06/11 08:16:46;;;;;;;7.47;5.28;;;25.90;69.60;;;;;;5088741;28;20036;-69
2023/06/11 08:19:15;;;;;;;7.82;5.07;;;26.00;69.60;;;;;;5093634;28;20024;-68
2023/06/11 08:21:41;;;;;;;7.63;5.05;;;26.10;70.90;;;;;;5087094;28;20364;-67
2023/06/11 08:24:08;;;;;;;6.38;4.47;;;26.20;69.90;;;;;;5087138;28;20081;-68
2023/06/11 08:26:34;;;;;;;7.13;4.65;;;26.70;70.60;;;;;;5094388;28;20104;-67
2023/06/11 08:29:00;;;;;;;7.82;4.72;;;27.20;68.30;;;;;;5087982;28;20449;-68
2023/06/11 08:31:26;;;;;;;8.60;4.93;;;27.10;68.70;;;;;;5088604;28;20056;-68
2023/06/11 08:33:52;;;;;;;6.10;4.88;;;26.90;68.70;;;;;;5091405;28;20079;-67
2023/06/11 08:36:18;;;;;;;7.45;4.55;;;26.70;69.60;;;;;;5086321;28;20040;-67
2023/06/11 08:38:43;;;;;;;5.93;4.38;;;26.80;70.50;;;;;;5090866;28;20030;-67
2023/06/11 08:41:09;;;;;;;7.55;4.47;;;27.50;68.90;;;;;;5088728;28;20016;-68
2023/06/11 08:43:35;;;;;;;6.82;4.70;;;28.10;66.10;;;;;;5091995;28;20020;-68
2023/06/11 08:46:01;;;;;;;5.95;4.40;;;28.50;65.60;;;;;;5089922;28;20012;-67
2023/06/11 08:48:30;;;;;;;7.57;4.30;;;28.30;64.70;;;;;;5085314;28;20371;-68
2023/06/11 08:51:01;;;;;;;7.05;4.22;;;28.20;63.90;;;;;;5068241;28;20129;-68
2023/06/11 08:53:27;;;;;;;8.00;4.40;;;28.20;63.30;;;;;;5083843;28;20035;-67
2023/06/11 08:55:54;;;;;;;7.90;4.40;;;27.80;64.00;;;;;;5082119;28;20376;-68
2023/06/11 08:58:20;;;;;;;6.75;4.78;;;27.90;65.00;;;;;;5086951;28;20391;-68
2023/06/11 09:00:46;;;;;;;7.28;4.10;;;28.20;62.90;;;;;;5084747;28;20070;-68
2023/06/11 09:03:12;;;;;;;8.00;4.43;;;28.10;63.80;;;;;;5082959;28;20032;-68
2023/06/11 09:05:39;;;;;;;9.05;4.40;;;28.20;64.20;;;;;;5088729;28;20020;-68
2023/06/11 09:08:08;;;;;;;6.82;4.43;;;27.90;64.50;;;;;;5080417;28;20064;-67
2023/06/11 09:10:33;;;;;;;5.68;4.20;;;28.00;63.00;;;;;;5087733;28;20142;-68
2023/06/11 09:13:00;;;;;;;5.95;3.95;;;28.40;63.90;;;;;;5086735;28;20114;-68
2023/06/11 09:15:26;;;;;;;8.23;4.28;;;28.40;62.70;;;;;;5087138;28;20028;-68
2023/06/11 09:17:52;;;;;;;6.95;4.40;;;28.20;63.20;;;;;;5087421;28;20298;-69
2023/06/11 09:20:18;;;;;;;5.35;3.80;;;28.70;63.40;;;;;;5089696;28;20073;-69
2023/06/11 09:22:45;;;;;;;6.38;4.03;;;29.30;61.00;;;;;;5085547;28;20020;-69
2023/06/11 09:25:19;;;;;;;5.97;4.05;;;29.80;61.70;;;;;;5086571;28;20138;-69
2023/06/11 09:27:45;;;;;;;;;;;30.00;60.50;;;;;;5082917;28;20032;-69
2023/06/11 09:30:19;;;;;;;6.90;4.18;;;30.10;58.50;;;;;;5084119;28;19917;-68
2023/06/11 09:32:47;;;;;;;6.10;4.05;;;28.80;60.60;;;;;;5084561;28;20024;-68
2023/06/11 09:35:14;;;;;;;5.72;4.20;;;28.50;61.00;;;;;;5085550;28;20107;-67
2023/06/11 09:37:44;;;;;;;7.03;4.20;;;28.50;61.00;;;;;;5082424;28;20044;-67
2023/06/11 09:40:14;;;;;;;7.18;4.32;;;28.40;63.20;;;;;;5084766;28;20027;-68
2023/06/11 09:42:40;;;;;;;6.28;4.20;;;29.00;61.60;;;;;;5090052;28;20020;-68
2023/06/11 09:45:10;;;;;;;6.75;4.22;;;29.30;61.30;;;;;;5086798;28;20069;-68
2023/06/11 09:47:38;;;;;;;7.72;4.70;;;29.40;60.60;;;;;;5087130;28;20070;-68
2023/06/11 09:50:05;;;;;;;7.45;4.07;;;29.40;61.00;;;;;;5090983;28;20081;-69
2023/06/11 09:52:32;;;;;;;6.13;4.00;;;29.60;60.60;;;;;;5088151;28;20055;-69
2023/06/11 09:54:59;;;;;;;7.13;3.92;;;30.00;60.20;;;;;;5084590;28;20028;-69
2023/06/11 09:57:31;;;;;;;6.25;4.38;;;30.20;60.10;;;;;;5086980;28;21488;-69
2023/06/11 09:59:57;;;;;;;7.18;4.10;;;30.10;59.20;;;;;;5086046;28;20082;-68
2023/06/11 10:02:23;;;;;;;5.85;3.90;;;30.00;60.00;;;;;;5090751;28;20107;-67
2023/06/11 10:04:48;;;;;;;9.35;4.22;;;30.30;59.40;;;;;;5090520;28;20099;-68
2023/06/11 10:07:15;;;;;;;5.75;4.13;;;30.90;58.70;;;;;;5082875;28;20050;-69
2023/06/11 10:09:42;;;;;;;6.03;4.15;;;31.00;56.50;;;;;;5087837;28;20321;-67
2023/06/11 10:12:08;;;;;;;9.25;4.55;;;30.70;57.10;;;;;;5085891;28;20028;-68
2023/06/11 10:14:34;;;;;;;6.55;4.15;;;30.70;57.60;;;;;;5088395;28;20020;-68
2023/06/11 10:17:07;;;;;;;6.00;3.85;;;30.90;57.40;;;;;;5090060;28;20032;-68
2023/06/11 10:19:36;;;;;;;7.00;3.72;;;31.20;57.10;;;;;;5087734;28;20028;-67
2023/06/11 10:22:05;;;;;;;6.13;4.05;;;31.60;56.20;;;;;;5092976;28;20020;-68
2023/06/11 10:24:34;;;;;;;5.85;4.20;;;31.30;56.20;;;;;;5094779;28;20024;-68
2023/06/11 10:27:12;;;;;;;8.50;4.68;;;31.40;56.00;;;;;;5085069;28;20035;-69
2023/06/11 10:29:47;;;;;;;7.38;4.28;;;30.50;56.90;;;;;;5088868;28;20021;-69
2023/06/11 10:32:21;;;;;;;7.30;4.18;;;29.80;58.50;;;;;;5085827;28;20473;-69
2023/06/11 10:34:55;;;;;;;5.60;4.25;;;30.60;56.70;;;;;;5078864;28;20036;-69
2023/06/11 10:37:37;;;;;;;6.95;3.97;;;31.30;55.80;;;;;;5073641;28;20072;-69
2023/06/11 10:40:05;;;;;;;5.80;4.18;;;31.40;56.40;;;;;;5078010;28;20024;-69
2023/06/11 10:42:38;;;;;;;9.10;4.32;;;30.90;56.60;;;;;;5088461;28;20025;-69
2023/06/11 10:45:11;;;;;;;7.80;4.50;;;30.50;57.30;;;;;;5077341;28;20020;-68
2023/06/11 10:47:49;;;;;;;6.60;5.10;;;30.40;58.00;;;;;;5085213;28;20038;-68
2023/06/11 10:50:16;;;;;;;6.38;4.80;;;28.80;58.40;;;;;;5088908;28;20040;-69
2023/06/11 10:52:56;;;;;;;6.72;4.95;;;27.80;62.00;;;;;;5085044;28;20075;-68
2023/06/11 10:55:26;;;;;;;5.57;4.50;;;28.40;62.50;;;;;;5082732;28;20106;-69
2023/06/11 10:57:52;;;;;;;6.78;4.40;;;29.20;59.60;;;;;;5082577;28;20050;-69
2023/06/11 11:00:19;;;;;;;6.47;4.40;;;29.20;60.80;;;;;;5092568;28;20047;-69
2023/06/11 11:02:46;;;;;;;7.07;4.32;;;29.90;59.30;;;;;;5097299;28;20028;-69
2023/06/11 11:05:12;;;;;;;6.72;4.38;;;29.90;58.00;;;;;;5087807;28;20033;-69
2023/06/11 11:07:38;;;;;;;6.28;4.55;;;29.10;59.80;;;;;;5086470;28;20032;-68
2023/06/11 11:10:05;;;;;;;8.13;4.43;;;28.20;61.20;;;;;;5083576;28;20044;-68
2023/06/11 11:12:41;;;;;;;6.03;4.03;;;28.60;61.70;;;;;;5098706;28;20020;-68
2023/06/11 11:15:10;;;;;;;8.43;4.15;;;29.40;58.60;;;;;;5098908;28;20107;-69
2023/06/11 11:17:36;;;;;;;7.85;5.22;;;29.60;57.40;;;;;;5099005;28;20470;-68
2023/06/11 11:20:05;;;;;;;7.22;4.85;;;29.10;57.20;;;;;;5093854;28;20025;-69
2023/06/11 11:22:31;;;;;;;8.23;4.15;;;28.40;59.10;;;;;;5094217;28;20023;-69
2023/06/11 11:25:00;;;;;;;6.03;4.45;;;28.50;59.60;;;;;;5094585;28;20140;-68
2023/06/11 11:27:27;;;;;;;9.10;5.18;;;29.30;58.90;;;;;;5091729;28;21556;-68
2023/06/11 11:29:56;;;;;;;6.15;4.15;;;29.60;58.40;;;;;;5094238;28;20016;-69
2023/06/11 11:32:23;;;;;;;6.22;4.15;;;29.90;57.80;;;;;;5091344;28;20052;-68
2023/06/11 11:34:49;;;;;;;5.95;4.05;;;29.90;56.30;;;;;;5094850;28;20020;-69
2023/06/11 11:37:18;;;;;;;9.55;4.32;;;30.40;57.90;;;;;;5090788;28;20055;-68
2023/06/11 11:39:44;;;;;;;6.00;4.35;;;30.10;54.70;;;;;;5093715;28;20031;-68
2023/06/11 11:42:09;;;;;;;8.73;4.45;;;29.30;57.00;;;;;;5085980;28;20360;-69
2023/06/11 11:44:42;;;;;;;6.72;4.20;;;28.70;57.30;;;;;;5089980;28;20016;-68
2023/06/11 11:47:09;;;;;;;8.15;4.70;;;29.00;58.10;;;;;;5085872;28;20123;-68
2023/06/11 11:49:35;;;;;;;9.35;4.40;;;29.30;55.60;;;;;;5088941;28;20096;-68
2023/06/11 11:52:01;;;;;;;7.35;4.50;;;29.40;55.90;;;;;;5089799;28;20111;-69
2023/06/11 11:54:26;;;;;;;6.63;4.18;;;29.50;56.40;;;;;;5087656;28;20028;-69
2023/06/11 11:57:07;;;;;;;8.93;3.92;;;29.40;56.90;;;;;;5080142;28;20072;-68
2023/06/11 11:59:40;;;;;;;6.20;4.25;;;29.20;55.20;;;;;;5091812;28;20067;-68
2023/06/11 12:02:06;;;;;;;7.93;4.22;;;29.00;56.00;;;;;;5084110;28;20025;-68
2023/06/11 12:04:38;;;;;;;9.45;4.75;;;27.50;58.80;;;;;;5085763;28;20028;-68
2023/06/11 12:07:07;;;;;;;6.32;4.32;;;27.00;60.70;;;;;;5089816;28;21758;-68
2023/06/11 12:09:34;;;;;;;6.28;4.30;;;27.30;59.20;;;;;;5086372;28;20036;-68
2023/06/11 12:12:00;;;;;;;6.05;4.28;;;28.20;56.60;;;;;;5091683;28;20036;-68
2023/06/11 12:14:26;;;;;;;5.90;4.03;;;29.10;56.60;;;;;;5096052;28;20092;-69
2023/06/11 12:16:51;;;;;;;11.10;4.32;;;29.40;54.90;;;;;;5073805;28;20551;-68
2023/06/11 12:19:18;;;;;;;7.15;4.20;;;29.50;55.30;;;;;;5077427;28;20032;-69
2023/06/11 12:21:44;;;;;;;5.90;4.00;;;30.40;56.90;;;;;;5088433;28;20095;-69
2023/06/11 12:24:12;;;;;;;7.88;4.10;;;31.40;53.00;;;;;;5090159;28;20316;-69
2023/06/11 12:26:38;;;;;;;7.85;4.07;;;31.90;52.00;;;;;;5087028;28;20100;-69
2023/06/11 12:29:04;;;;;;;5.78;3.85;;;32.00;53.10;;;;;;5087436;28;20463;-68
2023/06/11 12:31:30;;;;;;;5.65;3.78;;;32.40;52.30;;;;;;5100504;28;20036;-67
2023/06/11 12:33:56;;;;;;;6.38;3.72;;;32.60;50.70;;;;;;5077208;28;20020;-67
2023/06/11 12:36:21;;;;;;;7.85;3.97;;;32.00;51.10;;;;;;5103196;28;20074;-67
2023/06/11 12:38:51;;;;;;;5.75;3.70;;;32.00;50.80;;;;;;5094424;28;20024;-67